sensor_id;sensor_type;location;lat;lon;timestamp;pressure;altitude;pressure_sealevel;temperature;humidity
56719;BME280;42597;40.636;0.278;2023-04-16T00:02:17;97338.38;;;16.18;46.00
56719;BME280;42597;40.636;0.278;2023-04-16T00:04:42;97362.25;;;16.36;41.83
56719;BME280;42597;40.636;0.278;2023-04-16T00:07:08;97387.72;;;16.54;42.89
56719;BME280;42597;40.636;0.278;2023-04-16T00:09:33;97346.34;;;16.41;44.01
56719;BME280;42597;40.636;0.278;2023-04-16T00:11:59;97386.97;;;16.57;46.14
56719;BME280;42597;40.636;0.278;2023-04-16T00:14:24;97407.88;;;16.39;44.60
56719;BME280;42597;40.636;0.278;2023-04-16T00:16:50;97362.91;;;16.18;43.87
56719;BME280;42597;40.636;0.278;2023-04-16T00:19:16;97354.31;;;15.75;45.05
56719;BME280;42597;40.636;0.278;2023-04-16T00:21:41;97334.94;;;15.81;46.28
56719;BME280;42597;40.636;0.278;2023-04-16T00:24:07;97335.81;;;15.54;44.83
56719;BME280;42597;40.636;0.278;2023-04-16T00:26:32;97326.19;;;15.64;44.77
56719;BME280;42597;40.636;0.278;2023-04-16T00:28:58;97314.66;;;15.78;43.52
56719;BME280;42597;40.636;0.278;2023-04-16T00:31:31;97325.91;;;16.17;46.35
56719;BME280;42597;40.636;0.278;2023-04-16T00:33:58;97321.91;;;16.08;43.53
56719;BME280;42597;40.636;0.278;2023-04-16T00:36:25;97316.50;;;16.11;46.15
56719;BME280;42597;40.636;0.278;2023-04-16T00:38:51;97321.06;;;15.96;43.45
56719;BME280;42597;40.636;0.278;2023-04-16T00:41:17;97297.97;;;15.09;43.34
56719;BME280;42597;40.636;0.278;2023-04-16T00:43:43;97308.72;;;15.31;45.32
56719;BME280;42597;40.636;0.278;2023-04-16T00:46:08;97279.31;;;15.85;43.67
56719;BME280;42597;40.636;0.278;2023-04-16T00:48:35;97309.22;;;15.07;43.18
56719;BME280;42597;40.636;0.278;2023-04-16T00:51:06;97311.31;;;14.57;45.14
56719;BME280;42597;40.636;0.278;2023-04-16T00:53:33;97280.53;;;15.13;45.64
56719;BME280;42597;40.636;0.278;2023-04-16T00:56:02;97293.47;;;15.23;43.62
56719;BME280;42597;40.636;0.278;2023-04-16T00:58:28;97276.91;;;15.36;45.21
56719;BME280;42597;40.636;0.278;2023-04-16T01:00:54;97292.06;;;15.03;46.34
56719;BME280;42597;40.636;0.278;2023-04-16T01:03:21;97290.19;;;15.44;44.95
56719;BME280;42597;40.636;0.278;2023-04-16T01:05:47;97285.13;;;15.43;43.60
56719;BME280;42597;40.636;0.278;2023-04-16T01:08:17;97260.97;;;15.00;46.08
56719;BME280;42597;40.636;0.278;2023-04-16T01:10:43;97277.31;;;15.78;45.18
56719;BME280;42597;40.636;0.278;2023-04-16T01:13:09;97262.13;;;14.43;48.62
56719;BME280;42597;40.636;0.278;2023-04-16T01:15:35;97271.72;;;15.64;43.90
56719;BME280;42597;40.636;0.278;2023-04-16T01:18:01;97255.28;;;16.57;45.64
56719;BME280;42597;40.636;0.278;2023-04-16T01:20:27;97290.25;;;15.48;42.01
56719;BME280;42597;40.636;0.278;2023-04-16T01:22:52;97290.94;;;15.78;44.03
56719;BME280;42597;40.636;0.278;2023-04-16T01:25:18;97286.75;;;15.92;44.23
56719;BME280;42597;40.636;0.278;2023-04-16T01:27:43;97290.63;;;15.13;43.69
56719;BME280;42597;40.636;0.278;2023-04-16T01:30:10;97288.94;;;15.75;43.29
56719;BME280;42597;40.636;0.278;2023-04-16T01:32:35;97273.91;;;15.89;46.08
56719;BME280;42597;40.636;0.278;2023-04-16T01:35:01;97296.72;;;15.73;42.05
56719;BME280;42597;40.636;0.278;2023-04-16T01:37:27;97324.31;;;15.68;44.54
56719;BME280;42597;40.636;0.278;2023-04-16T01:39:53;97322.19;;;14.87;44.89
56719;BME280;42597;40.636;0.278;2023-04-16T01:42:18;97314.97;;;15.69;45.16
56719;BME280;42597;40.636;0.278;2023-04-16T01:44:46;97327.13;;;15.79;42.57
56719;BME280;42597;40.636;0.278;2023-04-16T01:47:11;97323.63;;;16.26;44.10
56719;BME280;42597;40.636;0.278;2023-04-16T01:49:37;97287.56;;;15.96;45.00
56719;BME280;42597;40.636;0.278;2023-04-16T01:52:03;97306.66;;;16.51;45.65
56719;BME280;42597;40.636;0.278;2023-04-16T01:54:28;97272.84;;;16.04;43.55
56719;BME280;42597;40.636;0.278;2023-04-16T01:56:54;97306.19;;;15.87;43.22
56719;BME280;42597;40.636;0.278;2023-04-16T01:59:19;97302.09;;;16.11;44.14
56719;BME280;42597;40.636;0.278;2023-04-16T02:01:45;97322.91;;;15.48;45.87
56719;BME280;42597;40.636;0.278;2023-04-16T02:04:11;97310.81;;;15.83;44.02
56719;BME280;42597;40.636;0.278;2023-04-16T02:06:38;97322.75;;;16.15;45.55
56719;BME280;42597;40.636;0.278;2023-04-16T02:09:03;97308.84;;;15.42;45.09
56719;BME280;42597;40.636;0.278;2023-04-16T02:11:29;97299.00;;;16.16;44.88
56719;BME280;42597;40.636;0.278;2023-04-16T02:13:54;97279.66;;;15.43;43.76
56719;BME280;42597;40.636;0.278;2023-04-16T02:16:20;97319.25;;;15.70;45.20
56719;BME280;42597;40.636;0.278;2023-04-16T02:18:45;97310.75;;;15.38;43.64
56719;BME280;42597;40.636;0.278;2023-04-16T02:21:11;97328.78;;;15.16;44.04
56719;BME280;42597;40.636;0.278;2023-04-16T02:23:36;97310.97;;;15.22;45.51
56719;BME280;42597;40.636;0.278;2023-04-16T02:26:05;97359.41;;;15.40;47.05
56719;BME280;42597;40.636;0.278;2023-04-16T02:28:30;97387.00;;;14.55;42.18
56719;BME280;42597;40.636;0.278;2023-04-16T02:30:56;97376.19;;;15.15;44.42
56719;BME280;42597;40.636;0.278;2023-04-16T02:33:21;97402.91;;;13.84;44.87
56719;BME280;42597;40.636;0.278;2023-04-16T02:35:50;97390.28;;;14.64;43.76
56719;BME280;42597;40.636;0.278;2023-04-16T02:38:15;97387.16;;;14.16;44.15
56719;BME280;42597;40.636;0.278;2023-04-16T02:40:41;97384.00;;;14.60;45.84
56719;BME280;42597;40.636;0.278;2023-04-16T02:43:06;97391.06;;;15.21;43.44
56719;BME280;42597;40.636;0.278;2023-04-16T02:45:32;97390.81;;;14.50;45.54
56719;BME280;42597;40.636;0.278;2023-04-16T02:47:58;97373.19;;;14.94;42.47
56719;BME280;42597;40.636;0.278;2023-04-16T02:50:24;97377.41;;;14.88;47.71
56719;BME280;42597;40.636;0.278;2023-04-16T02:52:50;97374.28;;;15.16;43.40
56719;BME280;42597;40.636;0.278;2023-04-16T02:55:16;97386.81;;;14.67;44.17
56719;BME280;42597;40.636;0.278;2023-04-16T02:57:41;97402.59;;;14.58;44.84
56719;BME280;42597;40.636;0.278;2023-04-16T03:00:07;97426.69;;;14.14;44.36
56719;BME280;42597;40.636;0.278;2023-04-16T03:02:33;97400.09;;;14.00;43.92
56719;BME280;42597;40.636;0.278;2023-04-16T03:04:58;97381.59;;;14.09;42.78
56719;BME280;42597;40.636;0.278;2023-04-16T03:07:24;97409.25;;;13.92;42.70
56719;BME280;42597;40.636;0.278;2023-04-16T03:09:50;97392.84;;;13.46;42.51
56719;BME280;42597;40.636;0.278;2023-04-16T03:12:16;97411.06;;;13.65;43.57
56719;BME280;42597;40.636;0.278;2023-04-16T03:14:42;97400.63;;;14.81;46.18
56719;BME280;42597;40.636;0.278;2023-04-16T03:17:07;97412.34;;;13.71;42.85
56719;BME280;42597;40.636;0.278;2023-04-16T03:19:33;97422.72;;;13.65;41.87
56719;BME280;42597;40.636;0.278;2023-04-16T03:21:58;97412.59;;;13.43;43.62
56719;BME280;42597;40.636;0.278;2023-04-16T03:24:24;97432.31;;;13.40;46.80
56719;BME280;42597;40.636;0.278;2023-04-16T03:26:50;97431.16;;;13.60;46.86
56719;BME280;42597;40.636;0.278;2023-04-16T03:29:15;97430.03;;;14.72;48.97
56719;BME280;42597;40.636;0.278;2023-04-16T03:31:41;97401.88;;;14.61;44.09
56719;BME280;42597;40.636;0.278;2023-04-16T03:34:07;97450.19;;;14.25;44.77
56719;BME280;42597;40.636;0.278;2023-04-16T03:36:32;97449.78;;;12.24;43.28
56719;BME280;42597;40.636;0.278;2023-04-16T03:38:58;97447.38;;;13.76;42.97
56719;BME280;42597;40.636;0.278;2023-04-16T03:41:23;97446.78;;;13.28;45.41
56719;BME280;42597;40.636;0.278;2023-04-16T03:43:49;97446.72;;;13.44;42.60
56719;BME280;42597;40.636;0.278;2023-04-16T03:46:14;97452.09;;;14.02;44.38
56719;BME280;42597;40.636;0.278;2023-04-16T03:48:40;97438.13;;;14.00;43.57
56719;BME280;42597;40.636;0.278;2023-04-16T03:51:05;97452.81;;;13.21;47.15
56719;BME280;42597;40.636;0.278;2023-04-16T03:53:31;97450.09;;;13.21;43.87
56719;BME280;42597;40.636;0.278;2023-04-16T03:55:56;97459.34;;;13.94;42.91
56719;BME280;42597;40.636;0.278;2023-04-16T03:58:22;97457.44;;;12.85;43.91
56719;BME280;42597;40.636;0.278;2023-04-16T04:00:48;97457.44;;;13.56;43.03
56719;BME280;42597;40.636;0.278;2023-04-16T04:03:13;97468.47;;;13.63;42.18
56719;BME280;42597;40.636;0.278;2023-04-16T04:05:41;97470.16;;;13.52;41.10
56719;BME280;42597;40.636;0.278;2023-04-16T04:08:07;97461.88;;;13.45;43.36
56719;BME280;42597;40.636;0.278;2023-04-16T04:10:34;97488.78;;;12.67;43.75
56719;BME280;42597;40.636;0.278;2023-04-16T04:13:02;97498.50;;;13.54;45.35
56719;BME280;42597;40.636;0.278;2023-04-16T04:15:28;97505.59;;;13.59;48.63
56719;BME280;42597;40.636;0.278;2023-04-16T04:17:53;97527.19;;;12.25;44.46
56719;BME280;42597;40.636;0.278;2023-04-16T04:20:19;97503.69;;;13.08;44.23
56719;BME280;42597;40.636;0.278;2023-04-16T04:22:45;97512.88;;;13.74;45.68
56719;BME280;42597;40.636;0.278;2023-04-16T04:25:10;97525.41;;;13.24;44.35
56719;BME280;42597;40.636;0.278;2023-04-16T04:27:36;97530.84;;;12.17;45.05
56719;BME280;42597;40.636;0.278;2023-04-16T04:30:02;97519.97;;;13.08;44.29
56719;BME280;42597;40.636;0.278;2023-04-16T04:32:31;97521.41;;;13.38;44.32
56719;BME280;42597;40.636;0.278;2023-04-16T04:34:58;97527.81;;;13.14;47.73
56719;BME280;42597;40.636;0.278;2023-04-16T04:37:24;97526.72;;;12.99;44.01
56719;BME280;42597;40.636;0.278;2023-04-16T04:39:49;97522.41;;;13.14;46.71
56719;BME280;42597;40.636;0.278;2023-04-16T04:42:19;97522.41;;;13.84;44.66
56719;BME280;42597;40.636;0.278;2023-04-16T04:44:46;97529.13;;;13.36;42.98
56719;BME280;42597;40.636;0.278;2023-04-16T04:47:12;97510.69;;;14.22;43.77
56719;BME280;42597;40.636;0.278;2023-04-16T04:49:38;97522.19;;;13.38;43.80
56719;BME280;42597;40.636;0.278;2023-04-16T04:52:04;97519.16;;;14.17;46.51
56719;BME280;42597;40.636;0.278;2023-04-16T04:54:31;97512.28;;;14.66;43.30
56719;BME280;42597;40.636;0.278;2023-04-16T04:56:57;97531.25;;;14.43;44.88
56719;BME280;42597;40.636;0.278;2023-04-16T04:59:23;97537.38;;;13.58;43.82
56719;BME280;42597;40.636;0.278;2023-04-16T05:01:50;97515.97;;;14.12;43.38
56719;BME280;42597;40.636;0.278;2023-04-16T05:04:15;97518.44;;;14.20;41.08
56719;BME280;42597;40.636;0.278;2023-04-16T05:06:41;97528.25;;;14.05;46.52
56719;BME280;42597;40.636;0.278;2023-04-16T05:09:07;97553.03;;;13.65;46.99
56719;BME280;42597;40.636;0.278;2023-04-16T05:11:40;97546.72;;;12.31;47.25
56719;BME280;42597;40.636;0.278;2023-04-16T05:14:05;97545.72;;;12.67;44.41
56719;BME280;42597;40.636;0.278;2023-04-16T05:16:31;97552.34;;;13.68;52.02
56719;BME280;42597;40.636;0.278;2023-04-16T05:18:57;97543.06;;;13.02;44.44
56719;BME280;42597;40.636;0.278;2023-04-16T05:21:23;97539.25;;;12.72;45.14
56719;BME280;42597;40.636;0.278;2023-04-16T05:23:48;97548.22;;;11.48;47.26
56719;BME280;42597;40.636;0.278;2023-04-16T05:26:14;97551.19;;;13.18;50.78
56719;BME280;42597;40.636;0.278;2023-04-16T05:28:40;97546.59;;;13.54;49.90
56719;BME280;42597;40.636;0.278;2023-04-16T05:31:05;97541.94;;;12.88;46.01
56719;BME280;42597;40.636;0.278;2023-04-16T05:33:31;97561.66;;;12.41;46.66
56719;BME280;42597;40.636;0.278;2023-04-16T05:35:56;97566.44;;;14.13;48.97
56719;BME280;42597;40.636;0.278;2023-04-16T05:38:22;97557.25;;;12.96;45.24
56719;BME280;42597;40.636;0.278;2023-04-16T05:40:47;97580.97;;;12.67;45.77
56719;BME280;42597;40.636;0.278;2023-04-16T05:43:13;97561.97;;;13.15;47.34
56719;BME280;42597;40.636;0.278;2023-04-16T05:45:38;97584.09;;;12.69;46.27
56719;BME280;42597;40.636;0.278;2023-04-16T05:48:08;97584.72;;;12.94;45.55
56719;BME280;42597;40.636;0.278;2023-04-16T05:50:35;97584.00;;;12.81;44.85
56719;BME280;42597;40.636;0.278;2023-04-16T05:53:05;97583.47;;;12.16;45.06
56719;BME280;42597;40.636;0.278;2023-04-16T05:55:31;97569.22;;;13.97;50.63
56719;BME280;42597;40.636;0.278;2023-04-16T05:57:57;97579.13;;;13.70;43.89
56719;BME280;42597;40.636;0.278;2023-04-16T06:00:23;97584.22;;;13.71;46.87
56719;BME280;42597;40.636;0.278;2023-04-16T06:02:49;97576.94;;;13.24;45.04
56719;BME280;42597;40.636;0.278;2023-04-16T06:05:15;97584.75;;;13.96;44.87
56719;BME280;42597;40.636;0.278;2023-04-16T06:07:40;97584.88;;;13.49;44.45
56719;BME280;42597;40.636;0.278;2023-04-16T06:10:06;97586.47;;;13.02;44.24
56719;BME280;42597;40.636;0.278;2023-04-16T06:12:32;97593.91;;;13.21;44.38
56719;BME280;42597;40.636;0.278;2023-04-16T06:14:59;97579.47;;;13.17;43.08
56719;BME280;42597;40.636;0.278;2023-04-16T06:17:25;97575.00;;;13.41;45.26
56719;BME280;42597;40.636;0.278;2023-04-16T06:19:51;97581.66;;;12.96;44.59
56719;BME280;42597;40.636;0.278;2023-04-16T06:22:17;97569.66;;;13.79;44.23
56719;BME280;42597;40.636;0.278;2023-04-16T06:24:42;97574.66;;;13.26;42.21
56719;BME280;42597;40.636;0.278;2023-04-16T06:27:08;97569.47;;;14.30;45.24
56719;BME280;42597;40.636;0.278;2023-04-16T06:29:33;97546.19;;;14.49;43.38
56719;BME280;42597;40.636;0.278;2023-04-16T06:31:59;97561.19;;;13.65;42.12
56719;BME280;42597;40.636;0.278;2023-04-16T06:34:26;97554.16;;;13.45;44.82
56719;BME280;42597;40.636;0.278;2023-04-16T06:36:52;97553.91;;;13.69;45.93
56719;BME280;42597;40.636;0.278;2023-04-16T06:39:17;97554.78;;;14.12;42.55
56719;BME280;42597;40.636;0.278;2023-04-16T06:41:49;97562.50;;;13.91;42.33
56719;BME280;42597;40.636;0.278;2023-04-16T06:44:14;97556.81;;;14.38;45.58
56719;BME280;42597;40.636;0.278;2023-04-16T06:46:40;97559.91;;;13.98;42.36
56719;BME280;42597;40.636;0.278;2023-04-16T06:49:06;97553.56;;;14.71;45.69
56719;BME280;42597;40.636;0.278;2023-04-16T06:51:32;97542.13;;;14.43;43.25
56719;BME280;42597;40.636;0.278;2023-04-16T06:53:57;97554.88;;;14.81;44.71
56719;BME280;42597;40.636;0.278;2023-04-16T06:56:23;97553.09;;;15.15;42.74
56719;BME280;42597;40.636;0.278;2023-04-16T06:58:49;97560.31;;;14.58;43.11
56719;BME280;42597;40.636;0.278;2023-04-16T07:01:16;97554.25;;;15.14;42.29
56719;BME280;42597;40.636;0.278;2023-04-16T07:03:42;97554.13;;;15.07;43.75
56719;BME280;42597;40.636;0.278;2023-04-16T07:06:07;97541.91;;;15.20;43.68
56719;BME280;42597;40.636;0.278;2023-04-16T07:08:33;97538.03;;;14.72;42.93
56719;BME280;42597;40.636;0.278;2023-04-16T07:10:58;97545.88;;;15.26;43.39
56719;BME280;42597;40.636;0.278;2023-04-16T07:13:24;97533.66;;;15.40;41.82
56719;BME280;42597;40.636;0.278;2023-04-16T07:15:50;97549.91;;;14.87;40.00
56719;BME280;42597;40.636;0.278;2023-04-16T07:18:15;97547.44;;;15.27;39.57
56719;BME280;42597;40.636;0.278;2023-04-16T07:20:41;97547.88;;;15.56;43.02
56719;BME280;42597;40.636;0.278;2023-04-16T07:23:06;97548.03;;;15.67;46.05
56719;BME280;42597;40.636;0.278;2023-04-16T07:25:32;97547.06;;;15.55;41.24
56719;BME280;42597;40.636;0.278;2023-04-16T07:27:58;97535.44;;;14.56;40.87
56719;BME280;42597;40.636;0.278;2023-04-16T07:30:23;97526.28;;;16.38;43.67
56719;BME280;42597;40.636;0.278;2023-04-16T07:32:50;97524.22;;;16.27;42.45
56719;BME280;42597;40.636;0.278;2023-04-16T07:35:15;97524.34;;;16.01;40.96
56719;BME280;42597;40.636;0.278;2023-04-16T07:37:41;97527.72;;;15.61;38.42
56719;BME280;42597;40.636;0.278;2023-04-16T07:40:07;97532.47;;;15.67;38.34
56719;BME280;42597;40.636;0.278;2023-04-16T07:42:33;97523.84;;;16.25;39.18
56719;BME280;42597;40.636;0.278;2023-04-16T07:44:59;97527.75;;;15.64;38.87
56719;BME280;42597;40.636;0.278;2023-04-16T07:47:24;97524.59;;;15.62;39.17
56719;BME280;42597;40.636;0.278;2023-04-16T07:49:51;97530.66;;;16.09;40.41
56719;BME280;42597;40.636;0.278;2023-04-16T07:52:18;97536.13;;;16.09;39.43
56719;BME280;42597;40.636;0.278;2023-04-16T07:54:43;97527.84;;;16.39;39.25
56719;BME280;42597;40.636;0.278;2023-04-16T07:57:09;97532.03;;;15.95;36.48
56719;BME280;42597;40.636;0.278;2023-04-16T07:59:36;97530.59;;;16.39;40.63
56719;BME280;42597;40.636;0.278;2023-04-16T08:02:01;97526.59;;;16.70;41.54
56719;BME280;42597;40.636;0.278;2023-04-16T08:04:28;97529.63;;;16.61;38.38
56719;BME280;42597;40.636;0.278;2023-04-16T08:06:54;97534.19;;;16.87;41.66
56719;BME280;42597;40.636;0.278;2023-04-16T08:09:25;97525.91;;;16.76;41.35
56719;BME280;42597;40.636;0.278;2023-04-16T08:11:51;97530.28;;;16.10;35.88
56719;BME280;42597;40.636;0.278;2023-04-16T08:14:16;97522.59;;;16.60;38.74
56719;BME280;42597;40.636;0.278;2023-04-16T08:16:42;97529.13;;;16.11;35.98
56719;BME280;42597;40.636;0.278;2023-04-16T08:19:08;97534.31;;;16.61;38.37
56719;BME280;42597;40.636;0.278;2023-04-16T08:21:33;97538.50;;;16.92;36.86
56719;BME280;42597;40.636;0.278;2023-04-16T08:23:59;97529.13;;;16.89;40.89
56719;BME280;42597;40.636;0.278;2023-04-16T08:26:24;97533.81;;;16.89;35.42
56719;BME280;42597;40.636;0.278;2023-04-16T08:28:50;97529.59;;;16.58;35.05
56719;BME280;42597;40.636;0.278;2023-04-16T08:31:16;97529.84;;;16.83;36.42
56719;BME280;42597;40.636;0.278;2023-04-16T08:33:41;97521.78;;;16.56;33.58
56719;BME280;42597;40.636;0.278;2023-04-16T08:36:08;97535.72;;;16.85;36.10
56719;BME280;42597;40.636;0.278;2023-04-16T08:38:33;97523.72;;;16.96;36.03
56719;BME280;42597;40.636;0.278;2023-04-16T08:41:02;97518.25;;;16.93;35.44
56719;BME280;42597;40.636;0.278;2023-04-16T08:43:32;97522.84;;;17.40;38.36
56719;BME280;42597;40.636;0.278;2023-04-16T08:45:59;97522.03;;;17.36;37.61
56719;BME280;42597;40.636;0.278;2023-04-16T08:48:28;97527.16;;;17.38;35.84
56719;BME280;42597;40.636;0.278;2023-04-16T08:50:59;97530.25;;;17.36;36.13
56719;BME280;42597;40.636;0.278;2023-04-16T08:53:41;97531.84;;;17.41;34.50
56719;BME280;42597;40.636;0.278;2023-04-16T08:56:08;97539.03;;;16.67;31.79
56719;BME280;42597;40.636;0.278;2023-04-16T08:58:36;97533.44;;;16.90;37.01
56719;BME280;42597;40.636;0.278;2023-04-16T09:01:04;97535.47;;;17.04;35.51
56719;BME280;42597;40.636;0.278;2023-04-16T09:03:31;97536.25;;;17.01;32.92
56719;BME280;42597;40.636;0.278;2023-04-16T09:05:57;97537.50;;;17.76;35.61
56719;BME280;42597;40.636;0.278;2023-04-16T09:08:28;97532.59;;;17.38;33.24
56719;BME280;42597;40.636;0.278;2023-04-16T09:10:54;97532.81;;;17.73;38.60
56719;BME280;42597;40.636;0.278;2023-04-16T09:13:20;97531.22;;;17.72;35.26
56719;BME280;42597;40.636;0.278;2023-04-16T09:15:51;97537.97;;;17.23;32.57
56719;BME280;42597;40.636;0.278;2023-04-16T09:18:17;97533.00;;;17.40;32.94
56719;BME280;42597;40.636;0.278;2023-04-16T09:20:44;97533.63;;;17.78;36.56
56719;BME280;42597;40.636;0.278;2023-04-16T09:23:10;97536.44;;;17.95;38.81
56719;BME280;42597;40.636;0.278;2023-04-16T09:25:36;97541.41;;;17.75;38.02
56719;BME280;42597;40.636;0.278;2023-04-16T09:28:02;97541.34;;;17.68;32.57
56719;BME280;42597;40.636;0.278;2023-04-16T09:30:28;97544.97;;;17.83;35.88
56719;BME280;42597;40.636;0.278;2023-04-16T09:35:58;97540.72;;;17.93;33.03
56719;BME280;42597;40.636;0.278;2023-04-16T09:38:24;97535.28;;;18.00;36.13
56719;BME280;42597;40.636;0.278;2023-04-16T09:41:07;97526.72;;;18.02;37.47
56719;BME280;42597;40.636;0.278;2023-04-16T09:43:33;97522.72;;;17.88;31.78
56719;BME280;42597;40.636;0.278;2023-04-16T09:45:59;97524.66;;;17.77;32.14
56719;BME280;42597;40.636;0.278;2023-04-16T09:48:32;97532.88;;;17.88;34.75
56719;BME280;42597;40.636;0.278;2023-04-16T09:50:59;97532.78;;;17.70;36.06
56719;BME280;42597;40.636;0.278;2023-04-16T09:53:27;97525.19;;;18.18;34.06
56719;BME280;42597;40.636;0.278;2023-04-16T09:56:01;97516.94;;;18.08;34.58
56719;BME280;42597;40.636;0.278;2023-04-16T09:58:27;97521.25;;;18.05;32.32
56719;BME280;42597;40.636;0.278;2023-04-16T10:01:05;97514.56;;;17.92;35.63
56719;BME280;42597;40.636;0.278;2023-04-16T10:03:33;97518.84;;;17.86;30.34
56719;BME280;42597;40.636;0.278;2023-04-16T10:08:31;97518.03;;;17.89;32.29
56719;BME280;42597;40.636;0.278;2023-04-16T10:10:56;97511.13;;;18.23;31.62
56719;BME280;42597;40.636;0.278;2023-04-16T10:13:23;97504.84;;;18.12;33.06
56719;BME280;42597;40.636;0.278;2023-04-16T10:15:55;97504.53;;;18.39;33.40
56719;BME280;42597;40.636;0.278;2023-04-16T10:18:22;97500.59;;;18.36;34.24
56719;BME280;42597;40.636;0.278;2023-04-16T10:20:49;97497.88;;;18.33;35.56
56719;BME280;42597;40.636;0.278;2023-04-16T10:23:15;97499.47;;;18.52;36.46
56719;BME280;42597;40.636;0.278;2023-04-16T10:25:41;97486.97;;;18.54;33.73
56719;BME280;42597;40.636;0.278;2023-04-16T10:28:08;97498.69;;;18.58;33.26
56719;BME280;42597;40.636;0.278;2023-04-16T10:30:35;97502.56;;;18.39;31.58
56719;BME280;42597;40.636;0.278;2023-04-16T10:33:03;97496.34;;;18.60;33.15
56719;BME280;42597;40.636;0.278;2023-04-16T10:35:29;97483.81;;;18.52;34.62
56719;BME280;42597;40.636;0.278;2023-04-16T10:37:56;97485.34;;;18.28;30.19
56719;BME280;42597;40.636;0.278;2023-04-16T10:40:26;97469.75;;;18.57;31.14
56719;BME280;42597;40.636;0.278;2023-04-16T10:42:57;97477.19;;;18.60;30.22
56719;BME280;42597;40.636;0.278;2023-04-16T10:45:31;97468.22;;;18.85;33.18
56719;BME280;42597;40.636;0.278;2023-04-16T10:47:57;97475.28;;;18.86;29.75
56719;BME280;42597;40.636;0.278;2023-04-16T10:50:23;97467.47;;;18.73;30.91
56719;BME280;42597;40.636;0.278;2023-04-16T10:53:25;97464.69;;;18.63;28.57
56719;BME280;42597;40.636;0.278;2023-04-16T10:56:21;97465.47;;;18.92;34.29
56719;BME280;42597;40.636;0.278;2023-04-16T10:58:43;97472.91;;;19.02;30.68
56719;BME280;42597;40.636;0.278;2023-04-16T11:01:12;97467.44;;;18.95;33.17
56719;BME280;42597;40.636;0.278;2023-04-16T11:03:50;97458.81;;;18.96;28.89
56719;BME280;42597;40.636;0.278;2023-04-16T11:06:23;97454.94;;;18.97;30.56
56719;BME280;42597;40.636;0.278;2023-04-16T11:08:50;97446.72;;;18.90;27.77
56719;BME280;42597;40.636;0.278;2023-04-16T11:11:17;97451.00;;;18.81;28.33
56719;BME280;42597;40.636;0.278;2023-04-16T11:13:43;97448.63;;;19.11;32.05
56719;BME280;42597;40.636;0.278;2023-04-16T11:16:13;97442.38;;;19.14;29.51
56719;BME280;42597;40.636;0.278;2023-04-16T11:18:40;97436.06;;;19.28;33.00
56719;BME280;42597;40.636;0.278;2023-04-16T11:21:09;97432.91;;;19.33;35.10
56719;BME280;42597;40.636;0.278;2023-04-16T11:23:48;97432.97;;;19.12;27.38
56719;BME280;42597;40.636;0.278;2023-04-16T11:26:27;97433.34;;;19.24;27.92
56719;BME280;42597;40.636;0.278;2023-04-16T11:28:54;97435.28;;;19.28;29.97
56719;BME280;42597;40.636;0.278;2023-04-16T11:31:24;97427.50;;;19.15;27.80
56719;BME280;42597;40.636;0.278;2023-04-16T11:33:51;97425.91;;;19.25;27.71
56719;BME280;42597;40.636;0.278;2023-04-16T11:36:17;97428.25;;;19.34;30.77
56719;BME280;42597;40.636;0.278;2023-04-16T11:38:42;97420.38;;;19.43;33.08
56719;BME280;42597;40.636;0.278;2023-04-16T11:41:09;97419.53;;;19.53;31.72
56719;BME280;42597;40.636;0.278;2023-04-16T11:43:35;97418.41;;;19.40;31.58
56719;BME280;42597;40.636;0.278;2023-04-16T11:46:05;97411.03;;;19.30;28.95
56719;BME280;42597;40.636;0.278;2023-04-16T11:48:49;97403.94;;;19.43;27.15
56719;BME280;42597;40.636;0.278;2023-04-16T11:51:16;97403.84;;;19.64;32.51
56719;BME280;42597;40.636;0.278;2023-04-16T11:53:50;97392.13;;;19.49;26.58
56719;BME280;42597;40.636;0.278;2023-04-16T11:59:12;97385.81;;;19.74;29.04
56719;BME280;42597;40.636;0.278;2023-04-16T12:01:39;97385.78;;;19.78;31.30
56719;BME280;42597;40.636;0.278;2023-04-16T12:04:05;97390.53;;;19.70;27.25
56719;BME280;42597;40.636;0.278;2023-04-16T12:06:31;97382.63;;;19.83;25.75
56719;BME280;42597;40.636;0.278;2023-04-16T12:08:57;97386.59;;;19.75;27.08
56719;BME280;42597;40.636;0.278;2023-04-16T12:11:39;97375.56;;;19.82;28.62
56719;BME280;42597;40.636;0.278;2023-04-16T12:14:07;97376.38;;;19.82;34.67
56719;BME280;42597;40.636;0.278;2023-04-16T12:16:32;97372.41;;;19.87;29.75
56719;BME280;42597;40.636;0.278;2023-04-16T12:19:03;97364.59;;;19.82;28.19
56719;BME280;42597;40.636;0.278;2023-04-16T12:21:36;97361.44;;;19.87;29.49
56719;BME280;42597;40.636;0.278;2023-04-16T12:24:02;97361.06;;;19.85;27.40
56719;BME280;42597;40.636;0.278;2023-04-16T12:26:41;97363.00;;;19.88;28.62
56719;BME280;42597;40.636;0.278;2023-04-16T12:29:18;97357.94;;;19.83;24.12
56719;BME280;42597;40.636;0.278;2023-04-16T12:31:44;97356.59;;;20.05;31.74
56719;BME280;42597;40.636;0.278;2023-04-16T12:34:11;97358.56;;;20.05;29.75
56719;BME280;42597;40.636;0.278;2023-04-16T12:36:36;97352.69;;;20.06;27.84
56719;BME280;42597;40.636;0.278;2023-04-16T12:39:02;97351.84;;;20.13;29.24
56719;BME280;42597;40.636;0.278;2023-04-16T12:41:28;97355.81;;;20.05;27.00
56719;BME280;42597;40.636;0.278;2023-04-16T12:44:22;97356.94;;;20.14;31.34
56719;BME280;42597;40.636;0.278;2023-04-16T12:46:48;97361.72;;;20.07;29.48
56719;BME280;42597;40.636;0.278;2023-04-16T12:49:13;97363.66;;;20.06;25.88
56719;BME280;42597;40.636;0.278;2023-04-16T12:51:39;97362.53;;;19.96;24.07
56719;BME280;42597;40.636;0.278;2023-04-16T12:54:06;97359.78;;;20.00;25.24
56719;BME280;42597;40.636;0.278;2023-04-16T12:56:32;97351.84;;;20.13;31.82
56719;BME280;42597;40.636;0.278;2023-04-16T12:58:58;97362.03;;;20.16;27.98
56719;BME280;42597;40.636;0.278;2023-04-16T13:01:24;97358.81;;;20.25;26.96
56719;BME280;42597;40.636;0.278;2023-04-16T13:03:49;97360.53;;;20.04;22.25
56719;BME280;42597;40.636;0.278;2023-04-16T13:06:16;97353.00;;;20.19;29.77
56719;BME280;42597;40.636;0.278;2023-04-16T13:08:43;97345.03;;;20.32;23.44